sensor_id;sensor_type;location;lat;lon;timestamp;P1;durP1;ratioP1;P2;durP2;ratioP2
73938;SDS011;62291;47.554;8.504;2023-02-20T00:01:25;7.00;;;2.75;;
73938;SDS011;62291;47.554;8.504;2023-02-20T00:03:51;8.70;;;3.10;;
73938;SDS011;62291;47.554;8.504;2023-02-20T00:06:17;5.72;;;2.65;;
73938;SDS011;62291;47.554;8.504;2023-02-20T00:08:43;6.68;;;2.45;;
73938;SDS011;62291;47.554;8.504;2023-02-20T00:11:08;6.20;;;2.30;;
73938;SDS011;62291;47.554;8.504;2023-02-20T00:13:34;4.35;;;2.40;;
73938;SDS011;62291;47.554;8.504;2023-02-20T00:16:00;5.32;;;2.72;;
73938;SDS011;62291;47.554;8.504;2023-02-20T00:18:25;5.57;;;2.38;;
73938;SDS011;62291;47.554;8.504;2023-02-20T00:20:51;6.38;;;2.80;;
73938;SDS011;62291;47.554;8.504;2023-02-20T00:23:17;5.95;;;2.65;;
73938;SDS011;62291;47.554;8.504;2023-02-20T00:25:42;7.05;;;2.78;;
73938;SDS011;62291;47.554;8.504;2023-02-20T00:28:08;5.55;;;2.70;;
73938;SDS011;62291;47.554;8.504;2023-02-20T00:30:34;7.57;;;2.55;;
73938;SDS011;62291;47.554;8.504;2023-02-20T00:33:00;6.90;;;2.33;;
73938;SDS011;62291;47.554;8.504;2023-02-20T00:35:26;7.05;;;2.50;;
73938;SDS011;62291;47.554;8.504;2023-02-20T00:37:52;6.45;;;2.50;;
73938;SDS011;62291;47.554;8.504;2023-02-20T00:40:19;4.20;;;2.13;;
73938;SDS011;62291;47.554;8.504;2023-02-20T00:42:47;6.25;;;2.95;;
73938;SDS011;62291;47.554;8.504;2023-02-20T00:45:13;5.22;;;2.08;;
73938;SDS011;62291;47.554;8.504;2023-02-20T00:47:40;8.00;;;2.95;;
73938;SDS011;62291;47.554;8.504;2023-02-20T00:50:06;6.95;;;2.78;;
73938;SDS011;62291;47.554;8.504;2023-02-20T00:52:32;5.35;;;2.53;;
73938;SDS011;62291;47.554;8.504;2023-02-20T00:54:58;6.40;;;2.33;;
73938;SDS011;62291;47.554;8.504;2023-02-20T00:57:24;10.75;;;2.58;;
73938;SDS011;62291;47.554;8.504;2023-02-20T00:59:49;7.43;;;3.33;;
73938;SDS011;62291;47.554;8.504;2023-02-20T01:02:15;5.35;;;2.67;;
73938;SDS011;62291;47.554;8.504;2023-02-20T01:04:41;7.13;;;3.13;;
73938;SDS011;62291;47.554;8.504;2023-02-20T01:07:07;7.95;;;3.13;;
73938;SDS011;62291;47.554;8.504;2023-02-20T01:09:32;4.75;;;2.70;;
73938;SDS011;62291;47.554;8.504;2023-02-20T01:11:58;7.63;;;3.33;;
73938;SDS011;62291;47.554;8.504;2023-02-20T01:14:24;6.03;;;3.03;;
73938;SDS011;62291;47.554;8.504;2023-02-20T01:16:50;6.20;;;2.85;;
73938;SDS011;62291;47.554;8.504;2023-02-20T01:19:17;6.72;;;3.03;;
73938;SDS011;62291;47.554;8.504;2023-02-20T01:21:44;5.68;;;2.33;;
73938;SDS011;62291;47.554;8.504;2023-02-20T01:24:10;9.05;;;2.83;;
73938;SDS011;62291;47.554;8.504;2023-02-20T01:26:36;5.40;;;3.10;;
73938;SDS011;62291;47.554;8.504;2023-02-20T01:29:02;5.75;;;3.50;;
73938;SDS011;62291;47.554;8.504;2023-02-20T01:31:28;10.15;;;3.38;;
73938;SDS011;62291;47.554;8.504;2023-02-20T01:33:54;6.25;;;2.95;;
73938;SDS011;62291;47.554;8.504;2023-02-20T01:36:20;6.45;;;3.20;;
73938;SDS011;62291;47.554;8.504;2023-02-20T01:38:46;6.80;;;3.40;;
73938;SDS011;62291;47.554;8.504;2023-02-20T01:41:15;6.47;;;3.28;;
73938;SDS011;62291;47.554;8.504;2023-02-20T01:43:41;8.02;;;3.05;;
73938;SDS011;62291;47.554;8.504;2023-02-20T01:48:51;9.30;;;3.67;;
73938;SDS011;62291;47.554;8.504;2023-02-20T01:51:45;7.82;;;3.78;;
73938;SDS011;62291;47.554;8.504;2023-02-20T01:56:45;8.02;;;3.70;;
73938;SDS011;62291;47.554;8.504;2023-02-20T01:59:12;6.57;;;3.67;;
73938;SDS011;62291;47.554;8.504;2023-02-20T02:01:40;8.25;;;4.10;;
73938;SDS011;62291;47.554;8.504;2023-02-20T02:04:06;7.38;;;3.90;;
73938;SDS011;62291;47.554;8.504;2023-02-20T02:06:37;9.82;;;3.88;;
73938;SDS011;62291;47.554;8.504;2023-02-20T02:09:08;5.95;;;3.30;;
73938;SDS011;62291;47.554;8.504;2023-02-20T02:11:43;9.02;;;3.78;;
73938;SDS011;62291;47.554;8.504;2023-02-20T02:14:11;6.90;;;3.63;;
73938;SDS011;62291;47.554;8.504;2023-02-20T02:47:36;5.57;;;3.72;;
73938;SDS011;62291;47.554;8.504;2023-02-20T02:50:18;6.88;;;3.50;;
73938;SDS011;62291;47.554;8.504;2023-02-20T02:52:51;6.90;;;3.20;;
73938;SDS011;62291;47.554;8.504;2023-02-20T02:55:26;10.98;;;3.55;;
73938;SDS011;62291;47.554;8.504;2023-02-20T02:57:54;9.15;;;3.85;;
73938;SDS011;62291;47.554;8.504;2023-02-20T03:00:21;9.40;;;3.95;;
73938;SDS011;62291;47.554;8.504;2023-02-20T03:13:34;6.50;;;3.40;;
73938;SDS011;62291;47.554;8.504;2023-02-20T03:19:31;8.60;;;3.28;;
73938;SDS011;62291;47.554;8.504;2023-02-20T03:22:04;5.28;;;3.40;;
73938;SDS011;62291;47.554;8.504;2023-02-20T03:24:48;9.02;;;4.10;;
73938;SDS011;62291;47.554;8.504;2023-02-20T03:27:29;7.80;;;3.90;;
73938;SDS011;62291;47.554;8.504;2023-02-20T03:30:18;6.60;;;3.40;;
73938;SDS011;62291;47.554;8.504;2023-02-20T03:33:03;7.50;;;3.67;;
73938;SDS011;62291;47.554;8.504;2023-02-20T03:35:49;11.02;;;3.97;;
73938;SDS011;62291;47.554;8.504;2023-02-20T03:38:36;11.13;;;4.50;;
73938;SDS011;62291;47.554;8.504;2023-02-20T03:41:23;8.25;;;4.20;;
73938;SDS011;62291;47.554;8.504;2023-02-20T03:44:09;8.60;;;4.40;;
73938;SDS011;62291;47.554;8.504;2023-02-20T03:46:39;8.38;;;4.10;;
73938;SDS011;62291;47.554;8.504;2023-02-20T03:49:09;6.65;;;3.72;;
73938;SDS011;62291;47.554;8.504;2023-02-20T03:51:38;13.50;;;4.30;;
73938;SDS011;62291;47.554;8.504;2023-02-20T03:54:05;9.00;;;4.30;;
73938;SDS011;62291;47.554;8.504;2023-02-20T03:56:45;7.53;;;4.50;;
73938;SDS011;62291;47.554;8.504;2023-02-20T04:02:05;9.25;;;4.22;;
73938;SDS011;62291;47.554;8.504;2023-02-20T04:04:37;7.18;;;3.95;;
73938;SDS011;62291;47.554;8.504;2023-02-20T04:10:14;10.13;;;4.72;;
73938;SDS011;62291;47.554;8.504;2023-02-20T04:12:45;9.00;;;5.10;;
73938;SDS011;62291;47.554;8.504;2023-02-20T04:15:13;8.13;;;4.53;;
73938;SDS011;62291;47.554;8.504;2023-02-20T04:17:45;9.60;;;4.80;;
73938;SDS011;62291;47.554;8.504;2023-02-20T04:20:16;11.40;;;5.55;;
73938;SDS011;62291;47.554;8.504;2023-02-20T04:22:44;9.85;;;5.68;;
73938;SDS011;62291;47.554;8.504;2023-02-20T04:27:53;8.77;;;4.05;;
73938;SDS011;62291;47.554;8.504;2023-02-20T04:30:19;12.23;;;6.10;;
73938;SDS011;62291;47.554;8.504;2023-02-20T04:32:45;9.00;;;5.18;;
73938;SDS011;62291;47.554;8.504;2023-02-20T04:35:15;10.82;;;5.43;;
73938;SDS011;62291;47.554;8.504;2023-02-20T04:37:43;11.13;;;6.70;;
73938;SDS011;62291;47.554;8.504;2023-02-20T04:40:09;11.75;;;6.32;;
73938;SDS011;62291;47.554;8.504;2023-02-20T04:42:37;13.02;;;6.10;;
73938;SDS011;62291;47.554;8.504;2023-02-20T04:45:02;11.68;;;6.45;;
73938;SDS011;62291;47.554;8.504;2023-02-20T04:47:29;10.88;;;6.20;;
73938;SDS011;62291;47.554;8.504;2023-02-20T04:49:54;10.82;;;6.22;;
73938;SDS011;62291;47.554;8.504;2023-02-20T04:52:20;14.10;;;7.60;;
73938;SDS011;62291;47.554;8.504;2023-02-20T04:54:46;14.93;;;7.78;;
73938;SDS011;62291;47.554;8.504;2023-02-20T04:57:12;14.88;;;8.40;;
73938;SDS011;62291;47.554;8.504;2023-02-20T04:59:38;10.70;;;6.55;;
73938;SDS011;62291;47.554;8.504;2023-02-20T05:02:04;15.40;;;7.63;;
73938;SDS011;62291;47.554;8.504;2023-02-20T05:04:29;14.40;;;7.82;;
73938;SDS011;62291;47.554;8.504;2023-02-20T05:06:56;12.20;;;7.22;;
73938;SDS011;62291;47.554;8.504;2023-02-20T05:09:22;13.30;;;7.63;;
73938;SDS011;62291;47.554;8.504;2023-02-20T05:11:48;16.17;;;8.25;;
73938;SDS011;62291;47.554;8.504;2023-02-20T05:14:15;15.13;;;8.50;;
73938;SDS011;62291;47.554;8.504;2023-02-20T05:16:41;16.27;;;9.25;;
73938;SDS011;62291;47.554;8.504;2023-02-20T05:19:09;15.98;;;8.63;;
73938;SDS011;62291;47.554;8.504;2023-02-20T05:21:36;15.25;;;8.95;;
73938;SDS011;62291;47.554;8.504;2023-02-20T05:24:20;14.70;;;7.70;;
73938;SDS011;62291;47.554;8.504;2023-02-20T05:26:48;19.42;;;9.00;;
73938;SDS011;62291;47.554;8.504;2023-02-20T05:29:13;11.32;;;7.40;;
73938;SDS011;62291;47.554;8.504;2023-02-20T05:31:39;14.38;;;8.75;;
73938;SDS011;62291;47.554;8.504;2023-02-20T05:34:05;13.18;;;7.43;;
73938;SDS011;62291;47.554;8.504;2023-02-20T05:36:31;19.00;;;8.20;;
73938;SDS011;62291;47.554;8.504;2023-02-20T05:38:57;10.98;;;7.68;;
73938;SDS011;62291;47.554;8.504;2023-02-20T05:41:23;17.02;;;9.52;;
73938;SDS011;62291;47.554;8.504;2023-02-20T05:43:48;21.20;;;9.68;;
73938;SDS011;62291;47.554;8.504;2023-02-20T05:46:14;18.40;;;10.38;;
73938;SDS011;62291;47.554;8.504;2023-02-20T05:48:40;19.23;;;11.70;;
73938;SDS011;62291;47.554;8.504;2023-02-20T05:51:06;24.83;;;12.52;;
73938;SDS011;62291;47.554;8.504;2023-02-20T05:53:32;20.90;;;11.27;;
73938;SDS011;62291;47.554;8.504;2023-02-20T05:55:57;14.73;;;9.30;;
73938;SDS011;62291;47.554;8.504;2023-02-20T05:58:24;18.20;;;10.25;;
73938;SDS011;62291;47.554;8.504;2023-02-20T06:00:50;17.08;;;10.43;;
73938;SDS011;62291;47.554;8.504;2023-02-20T06:03:16;16.42;;;9.60;;
73938;SDS011;62291;47.554;8.504;2023-02-20T06:05:43;18.08;;;10.30;;
73938;SDS011;62291;47.554;8.504;2023-02-20T06:08:09;17.33;;;11.23;;
73938;SDS011;62291;47.554;8.504;2023-02-20T06:10:35;24.45;;;11.88;;
73938;SDS011;62291;47.554;8.504;2023-02-20T06:13:00;25.08;;;12.50;;
73938;SDS011;62291;47.554;8.504;2023-02-20T06:15:26;23.90;;;12.70;;
73938;SDS011;62291;47.554;8.504;2023-02-20T06:17:52;22.63;;;11.70;;
73938;SDS011;62291;47.554;8.504;2023-02-20T06:20:18;23.33;;;12.00;;
73938;SDS011;62291;47.554;8.504;2023-02-20T06:22:45;25.13;;;12.02;;
73938;SDS011;62291;47.554;8.504;2023-02-20T06:25:14;20.08;;;11.43;;
73938;SDS011;62291;47.554;8.504;2023-02-20T06:27:40;17.67;;;8.88;;
73938;SDS011;62291;47.554;8.504;2023-02-20T06:30:06;16.30;;;9.02;;
73938;SDS011;62291;47.554;8.504;2023-02-20T06:32:33;14.52;;;8.73;;
73938;SDS011;62291;47.554;8.504;2023-02-20T06:34:58;17.58;;;9.98;;
73938;SDS011;62291;47.554;8.504;2023-02-20T06:37:24;16.25;;;10.15;;
73938;SDS011;62291;47.554;8.504;2023-02-20T06:39:49;18.10;;;10.38;;
73938;SDS011;62291;47.554;8.504;2023-02-20T06:42:15;16.30;;;10.23;;
73938;SDS011;62291;47.554;8.504;2023-02-20T06:44:41;19.88;;;10.50;;
73938;SDS011;62291;47.554;8.504;2023-02-20T06:47:07;18.45;;;9.55;;
73938;SDS011;62291;47.554;8.504;2023-02-20T06:49:36;18.63;;;10.60;;
73938;SDS011;62291;47.554;8.504;2023-02-20T06:52:05;11.85;;;8.68;;
73938;SDS011;62291;47.554;8.504;2023-02-20T06:54:31;12.20;;;7.22;;
73938;SDS011;62291;47.554;8.504;2023-02-20T06:56:58;13.68;;;8.35;;
73938;SDS011;62291;47.554;8.504;2023-02-20T06:59:24;12.93;;;7.38;;
73938;SDS011;62291;47.554;8.504;2023-02-20T07:01:50;13.07;;;7.68;;
73938;SDS011;62291;47.554;8.504;2023-02-20T07:04:23;17.60;;;8.65;;
73938;SDS011;62291;47.554;8.504;2023-02-20T07:06:50;11.52;;;7.00;;
73938;SDS011;62291;47.554;8.504;2023-02-20T07:09:16;12.32;;;7.07;;
73938;SDS011;62291;47.554;8.504;2023-02-20T07:11:44;10.13;;;6.07;;
73938;SDS011;62291;47.554;8.504;2023-02-20T07:14:10;11.55;;;5.60;;
73938;SDS011;62291;47.554;8.504;2023-02-20T07:16:35;10.50;;;6.15;;
73938;SDS011;62291;47.554;8.504;2023-02-20T07:19:01;11.63;;;6.28;;
73938;SDS011;62291;47.554;8.504;2023-02-20T07:21:27;12.10;;;5.95;;
73938;SDS011;62291;47.554;8.504;2023-02-20T07:23:52;13.77;;;7.65;;
73938;SDS011;62291;47.554;8.504;2023-02-20T07:28:45;9.10;;;5.40;;
73938;SDS011;62291;47.554;8.504;2023-02-20T07:31:11;7.55;;;5.30;;
73938;SDS011;62291;47.554;8.504;2023-02-20T07:33:37;8.00;;;5.05;;
73938;SDS011;62291;47.554;8.504;2023-02-20T07:36:02;10.68;;;4.75;;
73938;SDS011;62291;47.554;8.504;2023-02-20T07:38:29;8.57;;;5.63;;
73938;SDS011;62291;47.554;8.504;2023-02-20T07:40:54;13.13;;;7.80;;
73938;SDS011;62291;47.554;8.504;2023-02-20T07:43:20;7.93;;;4.47;;
73938;SDS011;62291;47.554;8.504;2023-02-20T07:45:46;14.15;;;7.28;;
73938;SDS011;62291;47.554;8.504;2023-02-20T07:48:11;13.30;;;8.05;;
73938;SDS011;62291;47.554;8.504;2023-02-20T07:50:37;10.60;;;6.15;;
73938;SDS011;62291;47.554;8.504;2023-02-20T07:53:04;10.38;;;6.65;;
73938;SDS011;62291;47.554;8.504;2023-02-20T07:55:30;13.95;;;9.18;;
73938;SDS011;62291;47.554;8.504;2023-02-20T07:57:55;32.65;;;24.38;;
73938;SDS011;62291;47.554;8.504;2023-02-20T08:00:22;18.27;;;11.25;;
73938;SDS011;62291;47.554;8.504;2023-02-20T08:02:49;14.20;;;7.97;;
73938;SDS011;62291;47.554;8.504;2023-02-20T08:05:15;17.23;;;12.93;;
73938;SDS011;62291;47.554;8.504;2023-02-20T08:07:44;27.90;;;19.90;;
73938;SDS011;62291;47.554;8.504;2023-02-20T08:10:11;25.75;;;18.88;;
73938;SDS011;62291;47.554;8.504;2023-02-20T08:12:37;13.38;;;8.27;;
73938;SDS011;62291;47.554;8.504;2023-02-20T08:15:03;14.40;;;7.88;;
73938;SDS011;62291;47.554;8.504;2023-02-20T08:17:29;10.10;;;6.63;;
73938;SDS011;62291;47.554;8.504;2023-02-20T08:19:55;9.65;;;6.22;;
73938;SDS011;62291;47.554;8.504;2023-02-20T08:22:20;11.63;;;6.72;;
73938;SDS011;62291;47.554;8.504;2023-02-20T08:24:46;15.52;;;10.18;;
73938;SDS011;62291;47.554;8.504;2023-02-20T08:27:11;13.55;;;9.38;;
73938;SDS011;62291;47.554;8.504;2023-02-20T08:29:37;10.48;;;6.55;;
73938;SDS011;62291;47.554;8.504;2023-02-20T08:32:03;11.93;;;6.78;;
73938;SDS011;62291;47.554;8.504;2023-02-20T08:34:29;12.18;;;6.85;;
73938;SDS011;62291;47.554;8.504;2023-02-20T08:36:54;11.63;;;6.38;;
73938;SDS011;62291;47.554;8.504;2023-02-20T08:39:20;14.57;;;6.13;;
73938;SDS011;62291;47.554;8.504;2023-02-20T08:41:46;13.90;;;6.22;;
73938;SDS011;62291;47.554;8.504;2023-02-20T08:44:12;11.73;;;5.53;;
73938;SDS011;62291;47.554;8.504;2023-02-20T08:46:48;11.13;;;6.47;;
73938;SDS011;62291;47.554;8.504;2023-02-20T08:49:15;10.80;;;5.85;;
73938;SDS011;62291;47.554;8.504;2023-02-20T08:51:43;9.73;;;5.57;;
73938;SDS011;62291;47.554;8.504;2023-02-20T08:54:09;7.68;;;5.53;;
73938;SDS011;62291;47.554;8.504;2023-02-20T08:56:35;12.23;;;6.60;;
73938;SDS011;62291;47.554;8.504;2023-02-20T08:59:01;14.32;;;6.22;;
73938;SDS011;62291;47.554;8.504;2023-02-20T09:01:27;10.70;;;5.85;;
73938;SDS011;62291;47.554;8.504;2023-02-20T09:03:52;10.05;;;6.50;;
73938;SDS011;62291;47.554;8.504;2023-02-20T09:06:18;10.20;;;6.97;;
73938;SDS011;62291;47.554;8.504;2023-02-20T09:08:44;8.68;;;5.70;;
73938;SDS011;62291;47.554;8.504;2023-02-20T09:11:10;11.82;;;5.30;;
73938;SDS011;62291;47.554;8.504;2023-02-20T09:13:42;7.50;;;4.90;;
73938;SDS011;62291;47.554;8.504;2023-02-20T09:16:09;6.78;;;4.30;;
73938;SDS011;62291;47.554;8.504;2023-02-20T09:18:35;5.63;;;3.90;;
73938;SDS011;62291;47.554;8.504;2023-02-20T09:21:01;7.13;;;4.50;;
73938;SDS011;62291;47.554;8.504;2023-02-20T09:23:27;6.65;;;4.57;;
73938;SDS011;62291;47.554;8.504;2023-02-20T09:25:52;10.18;;;4.55;;
73938;SDS011;62291;47.554;8.504;2023-02-20T09:28:18;6.50;;;3.78;;
73938;SDS011;62291;47.554;8.504;2023-02-20T09:30:44;4.97;;;4.25;;
73938;SDS011;62291;47.554;8.504;2023-02-20T09:33:10;8.95;;;4.57;;
73938;SDS011;62291;47.554;8.504;2023-02-20T09:35:35;7.55;;;4.10;;
73938;SDS011;62291;47.554;8.504;2023-02-20T09:38:01;6.82;;;3.80;;
73938;SDS011;62291;47.554;8.504;2023-02-20T09:40:29;6.18;;;3.92;;
73938;SDS011;62291;47.554;8.504;2023-02-20T09:53:15;6.85;;;4.20;;
73938;SDS011;62291;47.554;8.504;2023-02-20T09:55:57;6.80;;;3.83;;
73938;SDS011;62291;47.554;8.504;2023-02-20T09:58:40;7.82;;;4.32;;
73938;SDS011;62291;47.554;8.504;2023-02-20T10:01:13;5.47;;;4.20;;
73938;SDS011;62291;47.554;8.504;2023-02-20T10:03:48;7.20;;;4.32;;
73938;SDS011;62291;47.554;8.504;2023-02-20T10:06:34;6.53;;;4.32;;
73938;SDS011;62291;47.554;8.504;2023-02-20T10:09:00;5.80;;;4.20;;
73938;SDS011;62291;47.554;8.504;2023-02-20T10:17:23;6.93;;;3.97;;
73938;SDS011;62291;47.554;8.504;2023-02-20T10:23:09;5.47;;;4.15;;
73938;SDS011;62291;47.554;8.504;2023-02-20T10:25:40;6.00;;;3.63;;
73938;SDS011;62291;47.554;8.504;2023-02-20T10:28:17;5.53;;;3.92;;
73938;SDS011;62291;47.554;8.504;2023-02-20T10:30:50;6.90;;;3.95;;
73938;SDS011;62291;47.554;8.504;2023-02-20T10:36:20;6.47;;;3.70;;
73938;SDS011;62291;47.554;8.504;2023-02-20T10:38:59;4.75;;;3.55;;
73938;SDS011;62291;47.554;8.504;2023-02-20T10:44:09;6.28;;;3.80;;
73938;SDS011;62291;47.554;8.504;2023-02-20T10:49:30;7.93;;;3.40;;
73938;SDS011;62291;47.554;8.504;2023-02-20T10:52:19;5.53;;;3.42;;
73938;SDS011;62291;47.554;8.504;2023-02-20T10:54:53;6.57;;;3.92;;
73938;SDS011;62291;47.554;8.504;2023-02-20T10:57:31;8.93;;;3.80;;
73938;SDS011;62291;47.554;8.504;2023-02-20T11:00:15;6.13;;;3.60;;
73938;SDS011;62291;47.554;8.504;2023-02-20T11:02:56;11.63;;;4.28;;
73938;SDS011;62291;47.554;8.504;2023-02-20T11:05:46;7.43;;;4.20;;
73938;SDS011;62291;47.554;8.504;2023-02-20T11:08:16;5.53;;;3.70;;
73938;SDS011;62291;47.554;8.504;2023-02-20T11:10:46;6.03;;;4.00;;
73938;SDS011;62291;47.554;8.504;2023-02-20T11:13:19;6.95;;;4.00;;
73938;SDS011;62291;47.554;8.504;2023-02-20T11:15:49;5.90;;;3.60;;
73938;SDS011;62291;47.554;8.504;2023-02-20T11:18:25;5.70;;;3.50;;
73938;SDS011;62291;47.554;8.504;2023-02-20T11:20:56;5.60;;;3.67;;
73938;SDS011;62291;47.554;8.504;2023-02-20T11:23:43;6.22;;;3.65;;
73938;SDS011;62291;47.554;8.504;2023-02-20T11:26:21;6.40;;;2.80;;
73938;SDS011;62291;47.554;8.504;2023-02-20T11:29:10;6.93;;;3.20;;
73938;SDS011;62291;47.554;8.504;2023-02-20T11:31:40;8.98;;;3.50;;
73938;SDS011;62291;47.554;8.504;2023-02-20T11:34:11;4.18;;;3.40;;
73938;SDS011;62291;47.554;8.504;2023-02-20T11:36:48;6.05;;;3.63;;
73938;SDS011;62291;47.554;8.504;2023-02-20T11:39:26;3.95;;;3.35;;
73938;SDS011;62291;47.554;8.504;2023-02-20T11:42:10;4.68;;;3.40;;
73938;SDS011;62291;47.554;8.504;2023-02-20T11:44:36;3.33;;;2.97;;
73938;SDS011;62291;47.554;8.504;2023-02-20T11:47:22;4.82;;;3.35;;
73938;SDS011;62291;47.554;8.504;2023-02-20T11:50:06;3.70;;;3.13;;
73938;SDS011;62291;47.554;8.504;2023-02-20T11:52:34;3.88;;;2.90;;
73938;SDS011;62291;47.554;8.504;2023-02-20T11:55:10;3.83;;;3.08;;
73938;SDS011;62291;47.554;8.504;2023-02-20T11:57:44;4.60;;;3.20;;
73938;SDS011;62291;47.554;8.504;2023-02-20T12:02:47;5.05;;;3.22;;
73938;SDS011;62291;47.554;8.504;2023-02-20T12:05:18;5.22;;;3.10;;
73938;SDS011;62291;47.554;8.504;2023-02-20T12:13:01;3.42;;;2.95;;
73938;SDS011;62291;47.554;8.504;2023-02-20T12:15:27;4.32;;;2.97;;
73938;SDS011;62291;47.554;8.504;2023-02-20T12:20:28;5.72;;;2.75;;
73938;SDS011;62291;47.554;8.504;2023-02-20T12:37:14;3.45;;;2.75;;
73938;SDS011;62291;47.554;8.504;2023-02-20T12:48:34;3.53;;;2.95;;
73938;SDS011;62291;47.554;8.504;2023-02-20T12:51:25;4.03;;;2.85;;
73938;SDS011;62291;47.554;8.504;2023-02-20T12:56:48;4.47;;;2.70;;
73938;SDS011;62291;47.554;8.504;2023-02-20T12:59:30;3.63;;;2.67;;
73938;SDS011;62291;47.554;8.504;2023-02-20T13:02:34;6.07;;;3.63;;
73938;SDS011;62291;47.554;8.504;2023-02-20T13:05:04;3.10;;;2.78;;
73938;SDS011;62291;47.554;8.504;2023-02-20T13:07:34;3.95;;;2.72;;
73938;SDS011;62291;47.554;8.504;2023-02-20T13:12:38;7.25;;;2.53;;
73938;SDS011;62291;47.554;8.504;2023-02-20T13:17:59;3.22;;;2.55;;
73938;SDS011;62291;47.554;8.504;2023-02-20T13:20:39;3.17;;;2.60;;
73938;SDS011;62291;47.554;8.504;2023-02-20T13:25:45;2.75;;;2.15;;
73938;SDS011;62291;47.554;8.504;2023-02-20T13:30:37;7.22;;;2.50;;
73938;SDS011;62291;47.554;8.504;2023-02-20T13:33:18;6.00;;;2.38;;
73938;SDS011;62291;47.554;8.504;2023-02-20T13:35:51;3.45;;;1.98;;
73938;SDS011;62291;47.554;8.504;2023-02-20T13:38:19;3.55;;;2.42;;
73938;SDS011;62291;47.554;8.504;2023-02-20T13:45:47;2.72;;;2.13;;
73938;SDS011;62291;47.554;8.504;2023-02-20T13:56:26;4.88;;;1.85;;
73938;SDS011;62291;47.554;8.504;2023-02-20T13:59:11;3.08;;;1.75;;
73938;SDS011;62291;47.554;8.504;2023-02-20T14:04:22;3.97;;;1.73;;
73938;SDS011;62291;47.554;8.504;2023-02-20T14:06:52;1.85;;;1.35;;
73938;SDS011;62291;47.554;8.504;2023-02-20T14:09:21;2.50;;;1.70;;
73938;SDS011;62291;47.554;8.504;2023-02-20T14:12:00;3.85;;;1.80;;
73938;SDS011;62291;47.554;8.504;2023-02-20T14:14:31;4.68;;;2.10;;
73938;SDS011;62291;47.554;8.504;2023-02-20T14:17:21;4.25;;;1.92;;
73938;SDS011;62291;47.554;8.504;2023-02-20T14:19:49;2.83;;;2.10;;
73938;SDS011;62291;47.554;8.504;2023-02-20T14:22:28;2.08;;;1.48;;
73938;SDS011;62291;47.554;8.504;2023-02-20T14:27:37;3.00;;;1.98;;
73938;SDS011;62291;47.554;8.504;2023-02-20T14:32:37;2.97;;;1.70;;
73938;SDS011;62291;47.554;8.504;2023-02-20T14:35:09;3.25;;;1.63;;
73938;SDS011;62291;47.554;8.504;2023-02-20T14:40:38;3.90;;;1.60;;
73938;SDS011;62291;47.554;8.504;2023-02-20T14:43:16;4.60;;;1.80;;
73938;SDS011;62291;47.554;8.504;2023-02-20T14:45:45;3.13;;;1.80;;
73938;SDS011;62291;47.554;8.504;2023-02-20T14:48:26;2.92;;;1.38;;
73938;SDS011;62291;47.554;8.504;2023-02-20T14:51:03;3.08;;;1.60;;
73938;SDS011;62291;47.554;8.504;2023-02-20T14:56:40;3.15;;;1.65;;
73938;SDS011;62291;47.554;8.504;2023-02-20T14:59:15;2.45;;;2.08;;
73938;SDS011;62291;47.554;8.504;2023-02-20T15:02:20;4.60;;;1.85;;
73938;SDS011;62291;47.554;8.504;2023-02-20T15:04:49;4.07;;;1.48;;
73938;SDS011;62291;47.554;8.504;2023-02-20T15:07:18;4.18;;;1.60;;
73938;SDS011;62291;47.554;8.504;2023-02-20T15:09:46;3.33;;;1.48;;
73938;SDS011;62291;47.554;8.504;2023-02-20T15:14:56;2.80;;;1.50;;
73938;SDS011;62291;47.554;8.504;2023-02-20T15:19:56;4.25;;;1.52;;
73938;SDS011;62291;47.554;8.504;2023-02-20T15:22:23;3.45;;;1.65;;
73938;SDS011;62291;47.554;8.504;2023-02-20T15:24:53;3.85;;;1.30;;
73938;SDS011;62291;47.554;8.504;2023-02-20T15:28:04;3.25;;;1.25;;
73938;SDS011;62291;47.554;8.504;2023-02-20T15:30:33;4.97;;;1.30;;
73938;SDS011;62291;47.554;8.504;2023-02-20T15:32:59;3.17;;;1.23;;
73938;SDS011;62291;47.554;8.504;2023-02-20T15:35:26;3.92;;;1.20;;
73938;SDS011;62291;47.554;8.504;2023-02-20T15:37:54;2.42;;;1.05;;
73938;SDS011;62291;47.554;8.504;2023-02-20T15:40:28;4.63;;;0.90;;
73938;SDS011;62291;47.554;8.504;2023-02-20T15:42:56;7.97;;;1.20;;
73938;SDS011;62291;47.554;8.504;2023-02-20T15:45:28;3.92;;;1.17;;
73938;SDS011;62291;47.554;8.504;2023-02-20T15:47:55;3.83;;;0.88;;
73938;SDS011;62291;47.554;8.504;2023-02-20T15:50:22;13.18;;;1.80;;
73938;SDS011;62291;47.554;8.504;2023-02-20T15:52:51;10.93;;;1.85;;
73938;SDS011;62291;47.554;8.504;2023-02-20T15:55:18;10.60;;;1.20;;
73938;SDS011;62291;47.554;8.504;2023-02-20T15:57:46;10.95;;;1.27;;
73938;SDS011;62291;47.554;8.504;2023-02-20T16:00:20;5.47;;;0.98;;
73938;SDS011;62291;47.554;8.504;2023-02-20T16:02:48;6.35;;;1.08;;
73938;SDS011;62291;47.554;8.504;2023-02-20T16:05:14;11.30;;;1.17;;
73938;SDS011;62291;47.554;8.504;2023-02-20T16:07:39;7.15;;;1.20;;
73938;SDS011;62291;47.554;8.504;2023-02-20T16:10:05;2.47;;;0.95;;
73938;SDS011;62291;47.554;8.504;2023-02-20T16:12:31;2.60;;;1.35;;
73938;SDS011;62291;47.554;8.504;2023-02-20T16:14:58;7.93;;;3.00;;
73938;SDS011;62291;47.554;8.504;2023-02-20T16:17:25;9.65;;;2.03;;
73938;SDS011;62291;47.554;8.504;2023-02-20T16:19:53;6.95;;;1.67;;
73938;SDS011;62291;47.554;8.504;2023-02-20T16:22:20;9.63;;;1.70;;
73938;SDS011;62291;47.554;8.504;2023-02-20T16:24:45;4.53;;;1.55;;
73938;SDS011;62291;47.554;8.504;2023-02-20T16:27:21;8.07;;;2.08;;
73938;SDS011;62291;47.554;8.504;2023-02-20T16:29:49;5.95;;;1.38;;
73938;SDS011;62291;47.554;8.504;2023-02-20T16:32:17;6.95;;;1.75;;
73938;SDS011;62291;47.554;8.504;2023-02-20T16:34:47;11.02;;;1.70;;
73938;SDS011;62291;47.554;8.504;2023-02-20T16:37:14;9.32;;;1.83;;
73938;SDS011;62291;47.554;8.504;2023-02-20T16:39:40;8.43;;;1.50;;
73938;SDS011;62291;47.554;8.504;2023-02-20T16:44:50;10.02;;;1.70;;
73938;SDS011;62291;47.554;8.504;2023-02-20T16:49:49;7.18;;;2.10;;
73938;SDS011;62291;47.554;8.504;2023-02-20T16:52:23;8.45;;;1.77;;
73938;SDS011;62291;47.554;8.504;2023-02-20T16:54:50;12.32;;;2.28;;
73938;SDS011;62291;47.554;8.504;2023-02-20T16:57:18;9.27;;;2.78;;
73938;SDS011;62291;47.554;8.504;2023-02-20T16:59:48;11.13;;;5.15;;
73938;SDS011;62291;47.554;8.504;2023-02-20T17:02:16;9.52;;;3.58;;
73938;SDS011;62291;47.554;8.504;2023-02-20T17:04:44;8.68;;;2.35;;
73938;SDS011;62291;47.554;8.504;2023-02-20T17:07:10;6.18;;;2.33;;
73938;SDS011;62291;47.554;8.504;2023-02-20T17:09:36;4.38;;;1.88;;
73938;SDS011;62291;47.554;8.504;2023-02-20T17:12:03;5.60;;;1.80;;
73938;SDS011;62291;47.554;8.504;2023-02-20T17:14:29;6.13;;;2.10;;
73938;SDS011;62291;47.554;8.504;2023-02-20T17:16:54;7.43;;;1.90;;
73938;SDS011;62291;47.554;8.504;2023-02-20T17:19:20;4.47;;;1.50;;
73938;SDS011;62291;47.554;8.504;2023-02-20T17:21:47;5.50;;;2.10;;
73938;SDS011;62291;47.554;8.504;2023-02-20T17:24:13;13.70;;;2.45;;
73938;SDS011;62291;47.554;8.504;2023-02-20T17:26:39;6.78;;;1.77;;
73938;SDS011;62291;47.554;8.504;2023-02-20T17:29:05;5.53;;;1.60;;
73938;SDS011;62291;47.554;8.504;2023-02-20T17:31:31;4.35;;;1.85;;
73938;SDS011;62291;47.554;8.504;2023-02-20T17:33:56;5.20;;;2.15;;
73938;SDS011;62291;47.554;8.504;2023-02-20T17:36:22;7.15;;;2.42;;
73938;SDS011;62291;47.554;8.504;2023-02-20T17:38:48;6.75;;;1.90;;
73938;SDS011;62291;47.554;8.504;2023-02-20T17:41:15;5.60;;;2.15;;
73938;SDS011;62291;47.554;8.504;2023-02-20T17:43:43;6.40;;;2.13;;
73938;SDS011;62291;47.554;8.504;2023-02-20T17:46:09;8.38;;;2.42;;
73938;SDS011;62291;47.554;8.504;2023-02-20T17:48:35;9.65;;;2.45;;
73938;SDS011;62291;47.554;8.504;2023-02-20T17:51:01;8.38;;;2.58;;